Time;durP1;ratioP1;P1;durP2;ratioP2;P2;SDS_P1;SDS_P2;PMS_P1;PMS_P2;Temp;Humidity;BMP_temperature;BMP_pressure;BME280_temperature;BME280_humidity;BME280_pressure;Samples;Min_cycle;Max_cycle;Signal;HPM_P1;HPM_P2
2021/05/22 00:01:51;;;;;;;4.82;2.20;;;;;;;;;;5115383;28;20063;-67
2021/05/22 00:04:17;;;;;;;4.03;1.50;;;;;;;;;;5114275;28;20497;-67
2021/05/22 00:06:55;;;;;;;7.95;1.95;;;;;;;;;;5115483;28;20024;-67
2021/05/22 00:09:20;;;;;;;4.28;1.88;;;;;;;;;;5115423;28;20050;-66
2021/05/22 00:11:45;;;;;;;6.88;1.80;;;;;;;;;;5115182;28;20398;-67
2021/05/22 00:14:24;;;;;;;7.05;1.90;;;;;;;;;;5115737;28;20027;-67
2021/05/22 00:16:49;;;;;;;4.15;1.70;;;;;;;;;;5115161;28;20031;-65
2021/05/22 00:19:17;;;;;;;6.78;1.63;;;;;;;;;;5115244;28;20023;-65
2021/05/22 00:21:55;;;;;;;8.02;2.10;;;;;;;;;;5115382;28;20026;-65
2021/05/22 00:24:20;;;;;;;4.35;2.05;;;;;;;;;;5115035;28;20047;-65
2021/05/22 00:26:46;;;;;;;5.18;1.52;;;;;;;;;;5115192;28;20532;-65
2021/05/22 00:29:24;;;;;;;4.00;1.80;;;;;;;;;;5114861;28;20027;-64
2021/05/22 00:31:49;;;;;;;5.20;2.10;;;;;;;;;;5114800;28;20490;-67
2021/05/22 00:34:14;;;;;;;4.70;1.58;;;;;;;;;;5114952;28;20095;-67
2021/05/22 00:36:53;;;;;;;6.45;1.90;;;;;;;;;;5115089;28;20028;-67
2021/05/22 00:39:18;;;;;;;4.72;1.83;;;;;;;;;;5114919;28;20024;-67
2021/05/22 00:41:43;;;;;;;9.82;1.95;;;;;;;;;;5100781;28;20024;-67
2021/05/22 00:44:22;;;;;;;4.60;1.55;;;;;;;;;;5094782;28;20032;-67
2021/05/22 00:46:48;;;;;;;4.65;1.70;;;;;;;;;;5093585;28;20040;-67
2021/05/22 00:49:13;;;;;;;4.70;1.65;;;;;;;;;;5094216;28;20023;-65
2021/05/22 00:51:52;;;;;;;6.32;2.15;;;;;;;;;;5094734;28;20016;-65
2021/05/22 00:54:18;;;;;;;10.43;2.40;;;;;;;;;;5094213;28;20036;-65
2021/05/22 00:56:44;;;;;;;3.78;1.70;;;;;;;;;;5094133;28;20460;-64
2021/05/22 00:59:23;;;;;;;2.55;1.70;;;;;;;;;;5093915;28;20473;-65
2021/05/22 01:01:48;;;;;;;3.53;1.52;;;;;;;;;;5094112;28;20032;-67
2021/05/22 01:04:18;;;;;;;4.05;1.65;;;;;;;;;;5092664;28;20562;-67
2021/05/22 01:06:57;;;;;;;1.88;1.05;;;;;;;;;;5094038;28;20020;-67
2021/05/22 01:09:24;;;;;;;6.63;1.40;;;;;;;;;;5093943;28;20036;-67
2021/05/22 01:12:08;;;;;;;5.80;1.40;;;;;;;;;;5093624;28;20499;-67
2021/05/22 01:14:46;;;;;;;2.03;1.13;;;;;;;;;;5075656;28;20427;-64
2021/05/22 01:17:19;;;;;;;3.30;1.02;;;;;;;;;;5093897;28;20122;-65
2021/05/22 01:20:00;;;;;;;5.68;1.30;;;;;;;;;;5093568;28;20388;-64
2021/05/22 01:22:33;;;;;;;1.90;1.30;;;;;;;;;;5093685;28;20063;-65
2021/05/22 01:25:05;;;;;;;3.50;1.35;;;;;;;;;;5093612;28;20024;-65
2021/05/22 01:27:31;;;;;;;3.95;1.40;;;;;;;;;;5093713;28;20039;-64
2021/05/22 01:30:03;;;;;;;7.63;1.60;;;;;;;;;;5093542;28;20016;-64
2021/05/22 01:32:35;;;;;;;1.85;1.13;;;;;;;;;;5093421;28;20385;-65
2021/05/22 01:35:00;;;;;;;5.53;1.40;;;;;;;;;;5093399;28;20040;-64
2021/05/22 01:37:32;;;;;;;3.83;1.30;;;;;;;;;;5093570;28;20092;-65
2021/05/22 01:40:05;;;;;;;7.10;1.38;;;;;;;;;;5093130;28;20549;-65
2021/05/22 01:42:31;;;;;;;4.50;1.30;;;;;;;;;;5093336;28;20031;-64
2021/05/22 01:45:03;;;;;;;4.90;1.60;;;;;;;;;;5093336;28;20020;-65
2021/05/22 01:47:35;;;;;;;7.93;1.63;;;;;;;;;;5102369;28;20035;-65
2021/05/22 01:50:03;;;;;;;8.68;1.38;;;;;;;;;;5113577;28;20038;-65
2021/05/22 01:52:37;;;;;;;3.72;1.75;;;;;;;;;;5113668;28;20031;-64
2021/05/22 01:55:13;;;;;;;2.97;1.40;;;;;;;;;;5113555;28;20392;-65
2021/05/22 01:57:46;;;;;;;8.93;1.70;;;;;;;;;;5113370;28;20384;-64
2021/05/22 02:00:18;;;;;;;3.83;1.55;;;;;;;;;;5113049;28;20032;-64
2021/05/22 02:03:09;;;;;;;4.07;1.40;;;;;;;;;;5113208;28;20028;-65
2021/05/22 02:05:41;;;;;;;4.80;1.67;;;;;;;;;;5111588;28;20407;-65
2021/05/22 02:08:16;;;;;;;2.65;1.23;;;;;;;;;;5113662;28;20024;-65
2021/05/22 02:10:48;;;;;;;7.28;1.55;;;;;;;;;;5113292;28;20035;-65
2021/05/22 02:13:14;;;;;;;6.05;1.55;;;;;;;;;;5113193;28;20463;-65
2021/05/22 02:15:47;;;;;;;7.78;1.55;;;;;;;;;;5113203;28;20099;-64
2021/05/22 02:18:19;;;;;;;10.38;1.98;;;;;;;;;;5095181;28;20379;-65
2021/05/22 02:20:46;;;;;;;5.43;1.40;;;;;;;;;;5112869;28;20387;-65
2021/05/22 02:23:19;;;;;;;5.32;1.60;;;;;;;;;;5112999;28;20433;-65
2021/05/22 02:25:55;;;;;;;4.72;2.00;;;;;;;;;;5113111;28;20376;-65
2021/05/22 02:28:28;;;;;;;11.10;2.15;;;;;;;;;;5113105;28;20392;-65
2021/05/22 02:31:01;;;;;;;6.30;1.77;;;;;;;;;;5113201;28;20027;-65
2021/05/22 02:33:26;;;;;;;7.43;1.60;;;;;;;;;;5113270;28;20506;-65
2021/05/22 02:35:59;;;;;;;2.53;1.75;;;;;;;;;;5113144;28;20104;-65
2021/05/22 02:38:33;;;;;;;9.65;1.83;;;;;;;;;;5113187;28;20036;-64
2021/05/22 02:41:07;;;;;;;15.60;2.63;;;;;;;;;;5112812;28;20031;-65
2021/05/22 02:43:43;;;;;;;8.25;2.08;;;;;;;;;;5112924;28;20122;-65
2021/05/22 02:46:15;;;;;;;5.00;2.20;;;;;;;;;;5113191;28;20039;-65
2021/05/22 02:48:48;;;;;;;3.65;2.10;;;;;;;;;;5112880;28;20067;-63
2021/05/22 02:51:22;;;;;;;3.67;1.80;;;;;;;;;;5113443;28;20089;-65
2021/05/22 02:53:58;;;;;;;6.30;2.05;;;;;;;;;;5112876;28;20043;-65
2021/05/22 02:56:29;;;;;;;;;;;;;;;;;;5113880;28;20047;-65
2021/05/22 02:59:03;;;;;;;78.05;26.02;;;;;;;;;;5112857;28;19908;-65
2021/05/22 03:01:29;;;;;;;82.15;30.25;;;;;;;;;;5113070;28;20045;-64
2021/05/22 03:04:01;;;;;;;60.28;20.13;;;;;;;;;;5111437;28;20060;-65
2021/05/22 03:06:33;;;;;;;31.58;10.70;;;;;;;;;;5113050;28;20035;-65
2021/05/22 03:08:58;;;;;;;11.15;4.15;;;;;;;;;;5112821;28;20081;-65
2021/05/22 03:11:31;;;;;;;8.05;3.47;;;;;;;;;;5115999;28;20024;-65
2021/05/22 03:14:03;;;;;;;14.40;6.50;;;;;;;;;;5116407;28;20106;-65
2021/05/22 03:16:28;;;;;;;27.63;9.27;;;;;;;;;;5116389;28;20051;-65
2021/05/22 03:19:00;;;;;;;31.23;12.90;;;;;;;;;;5116352;28;20409;-65
2021/05/22 03:21:32;;;;;;;40.80;15.55;;;;;;;;;;5116451;28;20024;-65
2021/05/22 03:23:57;;;;;;;61.83;20.77;;;;;;;;;;5115981;28;20511;-65
2021/05/22 03:26:30;;;;;;;32.00;11.20;;;;;;;;;;5116459;28;20051;-65
2021/05/22 03:29:02;;;;;;;28.10;10.02;;;;;;;;;;5116122;28;20036;-64
2021/05/22 03:31:27;;;;;;;24.85;9.00;;;;;;;;;;5116326;28;20031;-65
2021/05/22 03:33:59;;;;;;;19.27;7.55;;;;;;;;;;5115856;28;20027;-65
2021/05/22 03:36:31;;;;;;;19.42;8.35;;;;;;;;;;5115911;28;20068;-65
2021/05/22 03:38:56;;;;;;;44.55;15.05;;;;;;;;;;5115690;28;20024;-65
2021/05/22 03:41:28;;;;;;;47.13;13.85;;;;;;;;;;5105843;28;20020;-65
2021/05/22 03:44:00;;;;;;;71.15;24.70;;;;;;;;;;5095402;28;20032;-65
2021/05/22 03:46:25;;;;;;;130.45;34.97;;;;;;;;;;5095596;28;20055;-64
2021/05/22 03:48:57;;;;;;;97.95;34.70;;;;;;;;;;5095342;28;20349;-65
2021/05/22 03:51:29;;;;;;;68.38;25.02;;;;;;;;;;5095182;28;20488;-65
2021/05/22 03:53:54;;;;;;;81.82;21.30;;;;;;;;;;5095008;28;20036;-64
2021/05/22 03:56:27;;;;;;;67.72;21.42;;;;;;;;;;5095517;28;20020;-65
2021/05/22 03:58:59;;;;;;;47.00;14.18;;;;;;;;;;5095178;28;20032;-65
2021/05/22 04:01:24;;;;;;;34.72;12.38;;;;;;;;;;5095336;28;20032;-65
2021/05/22 04:03:56;;;;;;;37.92;13.23;;;;;;;;;;5093627;28;20115;-65
2021/05/22 04:06:28;;;;;;;37.80;10.18;;;;;;;;;;5095252;28;20040;-65
2021/05/22 04:08:53;;;;;;;30.77;8.15;;;;;;;;;;5094706;28;20521;-65
2021/05/22 04:11:25;;;;;;;22.67;7.43;;;;;;;;;;5112539;28;20024;-65
2021/05/22 04:13:57;;;;;;;17.02;6.72;;;;;;;;;;5115233;28;20027;-64
2021/05/22 04:16:22;;;;;;;21.05;5.25;;;;;;;;;;5115818;28;20528;-65
2021/05/22 04:18:55;;;;;;;21.92;8.18;;;;;;;;;;5114845;28;20102;-64
2021/05/22 04:21:27;;;;;;;18.33;6.13;;;;;;;;;;5115332;28;20031;-65
2021/05/22 04:23:52;;;;;;;16.08;4.82;;;;;;;;;;5115218;28;20122;-65
2021/05/22 04:26:24;;;;;;;12.55;4.60;;;;;;;;;;5115270;28;20177;-64
2021/05/22 04:28:56;;;;;;;6.72;4.35;;;;;;;;;;5114935;28;20031;-65
2021/05/22 04:31:21;;;;;;;10.65;3.53;;;;;;;;;;5115219;28;20050;-64
2021/05/22 04:33:53;;;;;;;9.30;4.05;;;;;;;;;;5114627;28;20361;-65
2021/05/22 04:36:25;;;;;;;12.82;5.07;;;;;;;;;;5115061;28;20107;-65
2021/05/22 04:38:52;;;;;;;12.25;4.00;;;;;;;;;;5114687;28;20028;-64
2021/05/22 04:41:24;;;;;;;8.30;3.75;;;;;;;;;;5114514;28;20375;-65
2021/05/22 04:43:56;;;;;;;11.30;4.68;;;;;;;;;;5114528;28;20059;-64
2021/05/22 04:46:21;;;;;;;11.90;5.50;;;;;;;;;;5114863;28;20063;-64
2021/05/22 04:48:55;;;;;;;11.35;4.95;;;;;;;;;;5114618;28;20030;-64
2021/05/22 04:51:27;;;;;;;35.58;14.52;;;;;;;;;;5114653;28;20066;-65
2021/05/22 04:54:06;;;;;;;48.50;18.65;;;;;;;;;;5114119;28;20499;-65
2021/05/22 04:56:38;;;;;;;33.45;13.68;;;;;;;;;;5114580;28;20035;-65
2021/05/22 04:59:03;;;;;;;10.15;4.57;;;;;;;;;;5114176;28;20031;-65
2021/05/22 05:01:35;;;;;;;7.45;3.22;;;;;;;;;;5114546;28;20349;-65
2021/05/22 05:04:08;;;;;;;9.18;3.33;;;;;;;;;;5112892;28;20043;-65
2021/05/22 05:06:33;;;;;;;10.93;3.45;;;;;;;;;;5114824;28;20034;-64
2021/05/22 05:09:05;;;;;;;7.05;2.80;;;;;;;;;;5114583;28;20016;-65
2021/05/22 05:11:37;;;;;;;6.25;3.40;;;;;;;;;;5114437;28;20115;-64
2021/05/22 05:14:03;;;;;;;7.03;2.78;;;;;;;;;;5114112;28;20031;-65
2021/05/22 05:16:34;;;;;;;10.93;2.78;;;;;;;;;;5114033;28;20020;-65
2021/05/22 05:19:06;;;;;;;10.70;2.80;;;;;;;;;;5114097;28;20067;-65
2021/05/22 05:21:31;;;;;;;9.38;2.45;;;;;;;;;;5114215;28;20376;-65
2021/05/22 05:24:03;;;;;;;7.97;3.33;;;;;;;;;;5095535;28;20039;-65
2021/05/22 05:26:35;;;;;;;9.05;2.80;;;;;;;;;;5113925;28;20463;-65
2021/05/22 05:29:00;;;;;;;9.55;2.70;;;;;;;;;;5114225;28;20533;-65
2021/05/22 05:31:32;;;;;;;81.32;31.77;;;;;;;;;;5114165;28;20028;-65
2021/05/22 05:34:04;;;;;;;41.20;12.15;;;;;;;;;;5113439;28;20099;-65
2021/05/22 05:36:30;;;;;;;17.33;7.05;;;;;;;;;;5113888;28;20123;-64
2021/05/22 05:39:02;;;;;;;9.65;3.08;;;;;;;;;;5113689;28;20095;-65
2021/05/22 05:41:34;;;;;;;14.88;7.05;;;;;;;;;;5102564;28;20027;-65
2021/05/22 05:43:59;;;;;;;24.23;12.77;;;;;;;;;;5093180;28;20055;-65
2021/05/22 05:46:31;;;;;;;17.00;7.40;;;;;;;;;;5093767;28;20020;-65
2021/05/22 05:49:03;;;;;;;13.02;5.43;;;;;;;;;;5093175;28;20039;-65
2021/05/22 05:51:28;;;;;;;7.50;3.00;;;;;;;;;;5093367;28;20078;-65
2021/05/22 05:54:00;;;;;;;4.63;1.80;;;;;;;;;;5093160;28;20019;-64
2021/05/22 05:56:32;;;;;;;3.78;1.95;;;;;;;;;;5093285;28;20024;-65
2021/05/22 05:58:57;;;;;;;7.22;2.08;;;;;;;;;;5093220;28;20036;-65
2021/05/22 06:01:30;;;;;;;7.05;1.75;;;;;;;;;;5093232;28;20020;-64
2021/05/22 06:04:04;;;;;;;3.78;2.05;;;;;;;;;;5092400;28;20032;-65
2021/05/22 06:06:36;;;;;;;3.08;1.67;;;;;;;;;;5093299;28;20036;-65
2021/05/22 06:09:02;;;;;;;9.02;1.70;;;;;;;;;;5093062;28;20031;-65
2021/05/22 06:11:35;;;;;;;8.40;1.70;;;;;;;;;;5093185;28;20016;-64
2021/05/22 06:14:14;;;;;;;7.72;1.75;;;;;;;;;;5092877;28;20066;-65
2021/05/22 06:16:45;;;;;;;5.15;2.03;;;;;;;;;;5092768;28;20496;-65
2021/05/22 06:19:17;;;;;;;5.55;1.65;;;;;;;;;;5093405;28;20039;-65
2021/05/22 06:21:42;;;;;;;6.18;2.20;;;;;;;;;;5093025;28;20028;-64
2021/05/22 06:24:14;;;;;;;5.05;1.70;;;;;;;;;;5092548;28;20381;-65
2021/05/22 06:26:46;;;;;;;9.98;2.05;;;;;;;;;;5092986;28;20115;-65
2021/05/22 06:29:13;;;;;;;4.20;1.70;;;;;;;;;;5092946;28;20024;-65
2021/05/22 06:31:45;;;;;;;5.47;1.50;;;;;;;;;;5092872;28;20024;-65
2021/05/22 06:34:17;;;;;;;2.13;1.20;;;;;;;;;;5092937;28;20042;-65
2021/05/22 06:36:42;;;;;;;4.50;1.40;;;;;;;;;;5092864;28;20031;-64
2021/05/22 06:39:14;;;;;;;3.08;1.38;;;;;;;;;;5092767;28;20016;-65
2021/05/22 06:41:46;;;;;;;5.15;1.42;;;;;;;;;;5105689;28;20084;-65
2021/05/22 06:44:17;;;;;;;3.15;1.50;;;;;;;;;;5112830;28;20122;-65
2021/05/22 06:46:56;;;;;;;3.63;1.10;;;;;;;;;;5116478;28;20378;-64
2021/05/22 06:49:22;;;;;;;2.40;1.48;;;;;;;;;;5117013;28;20468;-64
2021/05/22 06:51:48;;;;;;;4.47;1.10;;;;;;;;;;5116931;28;20020;-65
2021/05/22 06:54:29;;;;;;;1.50;0.98;;;;;;;;;;5117029;28;20023;-65
2021/05/22 06:56:54;;;;;;;2.40;0.90;;;;;;;;;;5116929;28;20061;-65
2021/05/22 06:59:20;;;;;;;5.82;0.82;;;;;;;;;;5116902;28;20416;-65
2021/05/22 07:01:58;;;;;;;3.58;1.00;;;;;;;;;;5116651;28;20030;-65
2021/05/22 07:04:23;;;;;;;2.10;0.93;;;;;;;;;;5115356;28;20052;-65
2021/05/22 07:06:49;;;;;;;6.78;0.95;;;;;;;;;;5116477;28;20425;-64
2021/05/22 07:09:27;;;;;;;3.92;0.93;;;;;;;;;;5116790;28;20027;-65
2021/05/22 07:11:53;;;;;;;2.58;0.90;;;;;;;;;;5116355;28;20494;-65
2021/05/22 07:14:18;;;;;;;1.88;0.80;;;;;;;;;;5116682;28;20020;-65
2021/05/22 07:16:59;;;;;;;2.25;0.80;;;;;;;;;;5116736;28;20541;-64
2021/05/22 07:19:26;;;;;;;1.63;0.85;;;;;;;;;;5116882;28;20067;-65
2021/05/22 07:22:04;;;;;;;4.25;0.80;;;;;;;;;;5116433;28;20031;-64
2021/05/22 07:24:29;;;;;;;4.75;1.17;;;;;;;;;;5116330;28;20047;-64
2021/05/22 07:26:56;;;;;;;5.85;1.00;;;;;;;;;;5116006;28;20483;-65
2021/05/22 07:29:34;;;;;;;3.97;0.88;;;;;;;;;;5116353;28;20028;-65
2021/05/22 07:31:59;;;;;;;3.33;0.70;;;;;;;;;;5116297;28;20112;-65
2021/05/22 07:34:25;;;;;;;2.03;0.70;;;;;;;;;;5115990;28;20483;-65
2021/05/22 07:37:03;;;;;;;1.10;0.60;;;;;;;;;;5116222;28;20016;-64
2021/05/22 07:39:28;;;;;;;1.60;0.73;;;;;;;;;;5115638;28;20543;-65
2021/05/22 07:41:54;;;;;;;4.35;0.90;;;;;;;;;;5101039;28;20107;-65
2021/05/22 07:44:32;;;;;;;3.70;0.90;;;;;;;;;;5095626;28;20032;-65
2021/05/22 07:46:57;;;;;;;2.03;0.70;;;;;;;;;;5095572;28;20040;-65
2021/05/22 07:49:23;;;;;;;2.38;0.90;;;;;;;;;;5095119;28;20077;-65
2021/05/22 07:52:01;;;;;;;3.38;0.70;;;;;;;;;;5095612;28;20023;-65
2021/05/22 07:54:26;;;;;;;3.10;0.80;;;;;;;;;;5095386;28;20028;-65
2021/05/22 07:56:52;;;;;;;4.60;0.80;;;;;;;;;;5095085;28;20535;-65
2021/05/22 07:59:30;;;;;;;4.70;1.00;;;;;;;;;;5095439;28;20020;-65
2021/05/22 08:01:55;;;;;;;5.28;0.90;;;;;;;;;;5095291;28;20040;-66
2021/05/22 08:04:21;;;;;;;4.50;0.73;;;;;;;;;;5093817;28;20032;-65
2021/05/22 08:06:59;;;;;;;5.47;0.80;;;;;;;;;;5095066;28;20430;-65
2021/05/22 08:09:24;;;;;;;2.30;0.60;;;;;;;;;;5095134;28;20032;-65
2021/05/22 08:11:50;;;;;;;7.45;1.08;;;;;;;;;;5095215;28;20418;-65
2021/05/22 08:14:29;;;;;;;6.97;0.77;;;;;;;;;;5095037;28;20048;-65
2021/05/22 08:16:54;;;;;;;1.92;0.80;;;;;;;;;;5094932;28;20327;-64
2021/05/22 08:19:20;;;;;;;3.92;0.77;;;;;;;;;;5094705;28;20373;-65
2021/05/22 08:21:58;;;;;;;1.88;0.65;;;;;;;;;;5095370;28;20016;-65
2021/05/22 08:24:23;;;;;;;2.83;0.70;;;;;;;;;;5094707;28;20181;-65
2021/05/22 08:26:49;;;;;;;3.92;0.60;;;;;;;;;;5094819;28;20052;-65
2021/05/22 08:29:27;;;;;;;2.97;0.77;;;;;;;;;;5094666;28;20368;-65
2021/05/22 08:31:52;;;;;;;3.53;0.70;;;;;;;;;;5095066;28;20071;-65
2021/05/22 08:34:18;;;;;;;4.60;0.77;;;;;;;;;;5094748;28;20470;-66
2021/05/22 08:36:57;;;;;;;3.95;0.70;;;;;;;;;;5094473;28;20460;-65
2021/05/22 08:39:22;;;;;;;3.35;0.73;;;;;;;;;;5094438;28;20036;-65
2021/05/22 08:41:51;;;;;;;5.10;0.73;;;;;;;;;;5108672;28;20028;-65
2021/05/22 08:44:29;;;;;;;3.50;1.27;;;;;;;;;;5114805;28;20027;-66
2021/05/22 08:46:54;;;;;;;1.58;0.90;;;;;;;;;;5114417;28;20437;-67
2021/05/22 08:49:20;;;;;;;2.55;1.00;;;;;;;;;;5114680;28;20012;-66
2021/05/22 08:51:58;;;;;;;5.18;1.20;;;;;;;;;;5114767;28;20122;-66
2021/05/22 08:54:25;;;;;;;3.03;1.15;;;;;;;;;;5114586;28;20028;-66
2021/05/22 08:56:51;;;;;;;5.32;0.80;;;;;;;;;;5114660;28;20278;-67
2021/05/22 08:59:29;;;;;;;2.88;0.68;;;;;;;;;;5114293;28;20063;-66
2021/05/22 09:01:55;;;;;;;1.42;0.60;;;;;;;;;;5114555;28;20126;-64
2021/05/22 09:04:20;;;;;;;1.75;0.65;;;;;;;;;;5113041;28;20118;-64
2021/05/22 09:07:06;;;;;;;1.90;0.50;;;;;;;;;;5114049;28;20052;-64
2021/05/22 09:09:42;;;;;;;2.95;0.50;;;;;;;;;;5113485;28;20414;-64
2021/05/22 09:12:22;;;;;;;2.15;0.60;;;;;;;;;;5114431;28;20055;-63
2021/05/22 09:14:58;;;;;;;2.97;0.60;;;;;;;;;;5114209;28;20114;-64
2021/05/22 09:17:37;;;;;;;5.10;0.70;;;;;;;;;;5114342;28;20016;-64
2021/05/22 09:20:09;;;;;;;1.70;0.50;;;;;;;;;;5114084;28;20114;-64
2021/05/22 09:22:48;;;;;;;2.92;0.43;;;;;;;;;;5114130;28;20073;-64
2021/05/22 09:25:13;;;;;;;2.15;0.47;;;;;;;;;;5114002;28;20032;-64
2021/05/22 09:27:39;;;;;;;3.58;0.80;;;;;;;;;;5114099;28;20349;-64
2021/05/22 09:30:19;;;;;;;1.52;0.60;;;;;;;;;;5113980;28;20019;-63
2021/05/22 09:32:45;;;;;;;3.90;0.73;;;;;;;;;;5114017;28;20039;-64
2021/05/22 09:35:11;;;;;;;4.80;1.13;;;;;;;;;;5113871;28;20028;-64
2021/05/22 09:37:50;;;;;;;2.72;0.60;;;;;;;;;;5113755;28;20499;-64
2021/05/22 09:40:17;;;;;;;3.53;0.90;;;;;;;;;;5112476;28;20034;-64
2021/05/22 09:42:43;;;;;;;3.80;1.02;;;;;;;;;;5093318;28;20016;-63
2021/05/22 09:45:26;;;;;;;1.33;1.02;;;;;;;;;;5093318;28;20024;-66
2021/05/22 09:47:52;;;;;;;4.38;0.95;;;;;;;;;;5093040;28;20042;-66
2021/05/22 09:50:35;;;;;;;2.92;1.23;;;;;;;;;;5093318;28;20016;-65
2021/05/22 09:53:02;;;;;;;2.60;0.98;;;;;;;;;;5093531;28;20039;-66
2021/05/22 09:55:33;;;;;;;2.65;0.88;;;;;;;;;;5093214;28;20020;-67
2021/05/22 09:58:05;;;;;;;3.38;0.77;;;;;;;;;;5093601;28;20028;-66
2021/05/22 10:00:30;;;;;;;2.30;0.82;;;;;;;;;;5093174;28;20024;-66
2021/05/22 10:03:02;;;;;;;0.90;0.75;;;;;;;;;;5093211;28;20514;-66
2021/05/22 10:05:38;;;;;;;2.28;0.40;;;;;;;;;;5091919;28;20097;-66
2021/05/22 10:08:17;;;;;;;0.73;0.22;;;;;;;;;;5093160;28;20464;-66
2021/05/22 10:10:51;;;;;;;1.50;0.40;;;;;;;;;;5093374;28;20082;-65
2021/05/22 10:13:24;;;;;;;0.43;0.10;;;;;;;;;;5093208;28;20028;-66
2021/05/22 10:15:58;;;;;;;2.13;0.30;;;;;;;;;;5092939;28;20103;-64
2021/05/22 10:18:31;;;;;;;1.42;0.63;;;;;;;;;;5093127;28;20029;-64
2021/05/22 10:20:57;;;;;;;2.55;0.93;;;;;;;;;;5096966;28;20028;-63
2021/05/22 10:23:29;;;;;;;1.23;0.38;;;;;;;;;;5097127;28;20077;-63
2021/05/22 10:26:01;;;;;;;1.27;0.40;;;;;;;;;;5096897;28;20043;-63
2021/05/22 10:28:27;;;;;;;1.33;0.50;;;;;;;;;;5097233;28;20028;-63
2021/05/22 10:30:59;;;;;;;2.78;0.65;;;;;;;;;;5096910;28;20016;-66
2021/05/22 10:33:34;;;;;;;1.05;0.80;;;;;;;;;;5097091;28;20024;-65
2021/05/22 10:36:06;;;;;;;2.53;0.70;;;;;;;;;;5096964;28;20032;-66
2021/05/22 10:38:41;;;;;;;0.73;0.65;;;;;;;;;;5097037;28;20063;-66
2021/05/22 10:41:15;;;;;;;1.25;0.50;;;;;;;;;;5104992;28;20035;-66
2021/05/22 10:43:54;;;;;;;1.25;0.40;;;;;;;;;;5117200;28;20127;-66
2021/05/22 10:46:26;;;;;;;0.30;0.30;;;;;;;;;;5098859;28;20179;-66
2021/05/22 10:49:02;;;;;;;0.50;0.30;;;;;;;;;;5117177;28;20114;-66
2021/05/22 10:51:35;;;;;;;2.08;0.50;;;;;;;;;;5117088;28;20023;-66
2021/05/22 10:54:13;;;;;;;0.90;0.30;;;;;;;;;;5117107;28;20103;-64
2021/05/22 10:57:07;;;;;;;2.03;0.50;;;;;;;;;;5116969;28;20088;-63
2021/05/22 10:59:41;;;;;;;0.25;0.20;;;;;;;;;;5116885;28;20390;-64
2021/05/22 11:02:37;;;;;;;1.40;0.50;;;;;;;;;;5116545;28;20472;-65
2021/05/22 11:05:26;;;;;;;4.22;0.60;;;;;;;;;;5115418;28;20059;-66
2021/05/22 11:08:10;;;;;;;2.28;0.75;;;;;;;;;;5116780;28;20160;-67
2021/05/22 11:10:42;;;;;;;45.47;2.03;;;;;;;;;;5116543;28;20036;-66
2021/05/22 11:13:09;;;;;;;2.58;0.85;;;;;;;;;;5116666;28;20038;-65
2021/05/22 11:15:48;;;;;;;2.53;0.60;;;;;;;;;;5116517;28;20024;-66
2021/05/22 11:18:21;;;;;;;2.00;0.80;;;;;;;;;;5116559;28;20032;-64
2021/05/22 11:21:11;;;;;;;0.93;0.52;;;;;;;;;;5116616;28;20060;-64
2021/05/22 11:23:59;;;;;;;2.33;0.63;;;;;;;;;;5116373;28;20500;-64
2021/05/22 11:26:58;;;;;;;3.20;0.40;;;;;;;;;;5116352;28;20024;-64
2021/05/22 11:29:50;;;;;;;0.95;0.65;;;;;;;;;;5109915;28;20043;-64
2021/05/22 11:32:41;;;;;;;0.43;0.30;;;;;;;;;;5115603;28;20031;-64
2021/05/22 11:35:31;;;;;;;4.57;0.98;;;;;;;;;;5116134;28;20032;-64
2021/05/22 11:38:18;;;;;;;1.70;0.60;;;;;;;;;;5116226;28;20032;-65
2021/05/22 11:40:51;;;;;;;3.55;0.52;;;;;;;;;;5110940;28;20028;-64
2021/05/22 11:43:18;;;;;;;0.50;0.50;;;;;;;;;;5095683;28;20081;-64
2021/05/22 11:45:50;;;;;;;1.00;0.63;;;;;;;;;;5095636;28;20042;-64
2021/05/22 11:48:28;;;;;;;0.45;0.40;;;;;;;;;;5095658;28;20042;-64
2021/05/22 11:51:22;;;;;;;2.67;0.50;;;;;;;;;;5095415;28;20032;-64
2021/05/22 11:54:01;;;;;;;0.60;0.60;;;;;;;;;;5095470;28;20032;-64
2021/05/22 11:56:37;;;;;;;1.73;0.43;;;;;;;;;;5095411;28;20445;-64
2021/05/22 11:59:13;;;;;;;4.47;1.30;;;;;;;;;;5095511;28;20035;-64
2021/05/22 12:01:45;;;;;;;2.72;0.50;;;;;;;;;;5095307;28;20032;-64
2021/05/22 12:04:17;;;;;;;1.17;0.40;;;;;;;;;;5095286;28;20101;-64
2021/05/22 12:06:45;;;;;;;1.33;0.60;;;;;;;;;;5094011;28;20083;-64
2021/05/22 12:09:29;;;;;;;3.25;0.38;;;;;;;;;;5095161;28;20020;-64
2021/05/22 12:12:04;;;;;;;1.95;0.57;;;;;;;;;;5095090;28;20111;-64
2021/05/22 12:14:45;;;;;;;2.15;0.60;;;;;;;;;;5095185;28;20039;-64
2021/05/22 12:17:19;;;;;;;3.50;0.60;;;;;;;;;;5095027;28;20035;-63
2021/05/22 12:19:45;;;;;;;3.20;0.55;;;;;;;;;;5094833;28;20032;-63
2021/05/22 12:22:18;;;;;;;2.53;0.80;;;;;;;;;;5094881;28;20027;-63
2021/05/22 12:24:53;;;;;;;2.83;0.70;;;;;;;;;;5094773;28;20047;-63
2021/05/22 12:27:25;;;;;;;5.35;0.80;;;;;;;;;;5094833;28;20488;-63
2021/05/22 12:29:57;;;;;;;1.90;0.70;;;;;;;;;;5094412;28;20032;-63
2021/05/22 12:32:23;;;;;;;5.10;2.05;;;;;;;;;;5094734;28;20042;-64
2021/05/22 12:35:04;;;;;;;1.15;0.60;;;;;;;;;;5094616;28;20099;-63
2021/05/22 12:37:36;;;;;;;2.53;1.10;;;;;;;;;;5094280;28;20468;-64
2021/05/22 12:40:04;;;;;;;4.05;1.20;;;;;;;;;;5094517;28;20032;-63
2021/05/22 12:42:37;;;;;;;2.20;0.98;;;;;;;;;;5113401;28;20054;-63
2021/05/22 12:45:14;;;;;;;2.33;0.80;;;;;;;;;;5114828;28;20046;-64
2021/05/22 12:47:49;;;;;;;2.53;0.63;;;;;;;;;;5114963;28;20102;-63
2021/05/22 12:50:25;;;;;;;2.55;0.70;;;;;;;;;;5114807;28;20023;-63
2021/05/22 12:53:03;;;;;;;2.90;0.63;;;;;;;;;;5114744;28;20026;-64
2021/05/22 12:55:36;;;;;;;2.97;0.93;;;;;;;;;;5114862;28;20035;-64
2021/05/22 12:58:24;;;;;;;3.25;0.90;;;;;;;;;;5114635;28;20031;-64
2021/05/22 13:01:00;;;;;;;2.92;0.70;;;;;;;;;;5114415;28;20035;-64
2021/05/22 13:03:31;;;;;;;;;;;;;;;;;;5114937;28;20043;-64
2021/05/22 13:06:03;;;;;;;2.97;1.52;;;;;;;;;;5113118;28;19916;-63
2021/05/22 13:08:29;;;;;;;3.55;1.00;;;;;;;;;;5114578;28;20028;-64
2021/05/22 13:11:12;;;;;;;4.70;1.20;;;;;;;;;;5114045;28;20027;-64
2021/05/22 13:13:44;;;;;;;1.55;0.82;;;;;;;;;;5114289;28;20042;-64
2021/05/22 13:16:10;;;;;;;2.15;0.68;;;;;;;;;;5113985;28;20498;-63
2021/05/22 13:18:43;;;;;;;3.38;0.90;;;;;;;;;;5114016;28;20540;-63
2021/05/22 13:21:15;;;;;;;3.65;0.75;;;;;;;;;;5114208;28;20032;-64
2021/05/22 13:23:42;;;;;;;4.53;0.80;;;;;;;;;;5114168;28;20042;-64
2021/05/22 13:26:25;;;;;;;2.22;0.75;;;;;;;;;;5114095;28;20027;-64
2021/05/22 13:28:58;;;;;;;1.33;0.80;;;;;;;;;;5114033;28;20039;-64
2021/05/22 13:31:32;;;;;;;3.88;0.68;;;;;;;;;;5113840;28;20407;-66
2021/05/22 13:34:04;;;;;;;5.93;0.77;;;;;;;;;;5113996;28;20118;-66
2021/05/22 13:36:43;;;;;;;1.90;0.60;;;;;;;;;;5113879;28;20023;-66
2021/05/22 13:39:10;;;;;;;5.68;0.90;;;;;;;;;;5113644;28;20388;-66
2021/05/22 13:41:37;;;;;;;4.22;1.00;;;;;;;;;;5100985;28;20032;-66
2021/05/22 13:44:19;;;;;;;2.83;0.70;;;;;;;;;;5093456;28;20127;-64
2021/05/22 13:46:47;;;;;;;6.72;1.33;;;;;;;;;;5093056;28;20512;-63
2021/05/22 13:49:27;;;;;;;2.90;1.00;;;;;;;;;;5093441;28;20027;-63
2021/05/22 13:51:53;;;;;;;3.30;0.80;;;;;;;;;;5092932;28;20503;-63
2021/05/22 13:54:18;;;;;;;3.88;0.98;;;;;;;;;;5093079;28;20012;-63
2021/05/22 13:56:57;;;;;;;4.93;0.75;;;;;;;;;;5093007;28;20470;-63
2021/05/22 13:59:22;;;;;;;3.05;1.13;;;;;;;;;;5093276;28;20040;-63
2021/05/22 14:01:48;;;;;;;5.13;0.95;;;;;;;;;;5093146;28;20024;-63
2021/05/22 14:04:26;;;;;;;9.18;1.02;;;;;;;;;;5093216;28;20491;-63
2021/05/22 14:06:59;;;;;;;;;;;;;;;;;;5092365;28;20048;-63
2021/05/22 14:09:24;;;;;;;;;;;;;;;;;;5093640;28;19978;-63
2021/05/22 14:12:03;;;;;;;6.18;1.48;;;;;;;;;;5093171;28;20001;-63
2021/05/22 14:14:28;;;;;;;5.18;0.98;;;;;;;;;;5092836;28;20480;-63
2021/05/22 14:16:54;;;;;;;6.18;1.33;;;;;;;;;;5092882;28;20023;-63
2021/05/22 14:19:32;;;;;;;5.88;1.00;;;;;;;;;;5093051;28;20019;-63
2021/05/22 14:21:57;;;;;;;3.72;0.80;;;;;;;;;;5092844;28;20036;-63
2021/05/22 14:24:23;;;;;;;4.57;0.95;;;;;;;;;;5093035;28;20484;-63
2021/05/22 14:27:01;;;;;;;5.00;1.10;;;;;;;;;;5092697;28;20023;-63
2021/05/22 14:29:26;;;;;;;7.47;1.10;;;;;;;;;;5092933;28;20036;-64
2021/05/22 14:31:52;;;;;;;5.55;0.98;;;;;;;;;;5092819;28;20024;-63
2021/05/22 14:34:30;;;;;;;7.45;0.98;;;;;;;;;;5092979;28;20077;-63
2021/05/22 14:36:56;;;;;;;2.13;0.70;;;;;;;;;;5092840;28;20636;-63
2021/05/22 14:39:21;;;;;;;2.67;0.85;;;;;;;;;;5092865;28;20157;-63
2021/05/22 14:42:00;;;;;;;2.80;0.60;;;;;;;;;;5106572;28;20051;-63
2021/05/22 14:44:25;;;;;;;7.05;1.70;;;;;;;;;;5112892;28;20376;-63
2021/05/22 14:46:51;;;;;;;3.40;0.65;;;;;;;;;;5113157;28;20035;-63
2021/05/22 14:49:32;;;;;;;6.75;1.10;;;;;;;;;;5113645;28;20020;-63
2021/05/22 14:51:58;;;;;;;2.35;0.65;;;;;;;;;;5113025;28;20035;-63
2021/05/22 14:54:37;;;;;;;3.50;0.93;;;;;;;;;;5112910;28;20024;-63
2021/05/22 14:57:03;;;;;;;6.22;0.90;;;;;;;;;;5112713;28;20552;-63
2021/05/22 14:59:29;;;;;;;2.42;0.65;;;;;;;;;;5112740;28;20379;-63
2021/05/22 15:02:08;;;;;;;3.70;0.90;;;;;;;;;;5113090;28;20015;-63
2021/05/22 15:04:34;;;;;;;3.38;0.75;;;;;;;;;;5112950;28;20031;-63
2021/05/22 15:06:59;;;;;;;2.25;0.60;;;;;;;;;;5113451;28;20105;-63
2021/05/22 15:09:38;;;;;;;3.08;1.10;;;;;;;;;;5116605;28;20049;-63